sensor_id;sensor_type;location;lat;lon;timestamp;pressure;altitude;pressure_sealevel;temperature;humidity
55070;BME280;40967;52.070;8.596;2023-03-12T00:00:29;100212.19;;;-2.46;96.83
55070;BME280;40967;52.070;8.596;2023-03-12T00:02:54;100218.94;;;-2.43;96.56
55070;BME280;40967;52.070;8.596;2023-03-12T00:05:20;100212.59;;;-2.49;96.60
55070;BME280;40967;52.070;8.596;2023-03-12T00:07:47;100219.78;;;-2.43;96.86
55070;BME280;40967;52.070;8.596;2023-03-12T00:10:12;100211.38;;;-2.46;96.58
55070;BME280;40967;52.070;8.596;2023-03-12T00:12:38;100219.78;;;-2.43;96.05
55070;BME280;40967;52.070;8.596;2023-03-12T00:15:04;100214.66;;;-2.44;96.70
55070;BME280;40967;52.070;8.596;2023-03-12T00:17:29;100213.63;;;-2.43;96.31
55070;BME280;40967;52.070;8.596;2023-03-12T00:19:55;100222.63;;;-2.44;96.12
55070;BME280;40967;52.070;8.596;2023-03-12T00:22:20;100213.84;;;-2.45;96.32
55070;BME280;40967;52.070;8.596;2023-03-12T00:24:54;100212.59;;;-2.49;95.69
55070;BME280;40967;52.070;8.596;2023-03-12T00:27:20;100215.50;;;-2.44;95.87
55070;BME280;40967;52.070;8.596;2023-03-12T00:29:46;100197.41;;;-2.55;95.86
55070;BME280;40967;52.070;8.596;2023-03-12T00:32:11;100200.72;;;-2.53;95.45
55070;BME280;40967;52.070;8.596;2023-03-12T00:34:37;100213.84;;;-2.45;95.24
55070;BME280;40967;52.070;8.596;2023-03-12T00:37:02;100192.09;;;-2.55;95.30
55070;BME280;40967;52.070;8.596;2023-03-12T00:39:28;100208.91;;;-2.48;95.16
55070;BME280;40967;52.070;8.596;2023-03-12T00:41:53;100199.47;;;-2.50;95.13
55070;BME280;40967;52.070;8.596;2023-03-12T00:44:18;100205.81;;;-2.51;94.67
55070;BME280;40967;52.070;8.596;2023-03-12T00:46:44;100187.59;;;-2.61;94.62
55070;BME280;40967;52.070;8.596;2023-03-12T00:49:09;100194.75;;;-2.55;94.52
55070;BME280;40967;52.070;8.596;2023-03-12T00:51:36;100194.75;;;-2.55;94.66
55070;BME280;40967;52.070;8.596;2023-03-12T00:54:01;100187.94;;;-2.64;94.69
55070;BME280;40967;52.070;8.596;2023-03-12T00:56:27;100186.50;;;-2.66;94.45
55070;BME280;40967;52.070;8.596;2023-03-12T00:58:52;100193.34;;;-2.57;94.69
55070;BME280;40967;52.070;8.596;2023-03-12T01:01:18;100182.84;;;-2.65;94.81
55070;BME280;40967;52.070;8.596;2023-03-12T01:03:44;100172.81;;;-2.70;95.14
55070;BME280;40967;52.070;8.596;2023-03-12T01:06:09;100191.22;;;-2.62;95.02
55070;BME280;40967;52.070;8.596;2023-03-12T01:08:35;100194.28;;;-2.65;95.12
55070;BME280;40967;52.070;8.596;2023-03-12T01:11:00;100190.81;;;-2.65;95.00
55070;BME280;40967;52.070;8.596;2023-03-12T01:13:26;100186.28;;;-2.71;95.55
55070;BME280;40967;52.070;8.596;2023-03-12T01:15:51;100191.38;;;-2.70;95.25
55070;BME280;40967;52.070;8.596;2023-03-12T01:18:17;100185.44;;;-2.72;95.60
55070;BME280;40967;52.070;8.596;2023-03-12T01:20:42;100179.31;;;-2.72;95.26
55070;BME280;40967;52.070;8.596;2023-03-12T01:23:08;100181.13;;;-2.73;95.39
55070;BME280;40967;52.070;8.596;2023-03-12T01:25:34;100180.34;;;-2.73;95.79
55070;BME280;40967;52.070;8.596;2023-03-12T01:28:00;100147.91;;;-2.90;95.34
55070;BME280;40967;52.070;8.596;2023-03-12T01:30:26;100167.69;;;-2.71;95.77
55070;BME280;40967;52.070;8.596;2023-03-12T01:32:52;100155.56;;;-2.80;95.29
55070;BME280;40967;52.070;8.596;2023-03-12T01:35:17;100185.69;;;-2.67;94.85
55070;BME280;40967;52.070;8.596;2023-03-12T01:37:43;100172.59;;;-2.68;94.85
55070;BME280;40967;52.070;8.596;2023-03-12T01:40:14;100164.84;;;-2.70;94.95
55070;BME280;40967;52.070;8.596;2023-03-12T01:42:40;100170.16;;;-2.70;94.95
55070;BME280;40967;52.070;8.596;2023-03-12T01:45:50;100162.19;;;-2.70;95.35
55070;BME280;40967;52.070;8.596;2023-03-12T01:47:51;100150.06;;;-2.79;94.99
55070;BME280;40967;52.070;8.596;2023-03-12T01:50:17;100171.34;;;-2.72;94.83
55070;BME280;40967;52.070;8.596;2023-03-12T01:52:42;100168.06;;;-2.74;95.38
55070;BME280;40967;52.070;8.596;2023-03-12T01:55:12;100175.22;;;-2.75;95.32
55070;BME280;40967;52.070;8.596;2023-03-12T01:57:44;100160.88;;;-2.80;95.91
55070;BME280;40967;52.070;8.596;2023-03-12T02:00:19;100168.25;;;-2.76;95.45
55070;BME280;40967;52.070;8.596;2023-03-12T02:02:45;100155.16;;;-2.77;95.89
55070;BME280;40967;52.070;8.596;2023-03-12T02:07:41;100139.00;;;-2.82;95.37
55070;BME280;40967;52.070;8.596;2023-03-12T02:10:07;100139.19;;;-2.84;95.69
55070;BME280;40967;52.070;8.596;2023-03-12T02:12:32;100142.84;;;-2.85;95.52
55070;BME280;40967;52.070;8.596;2023-03-12T02:14:58;100147.41;;;-2.79;95.79
55070;BME280;40967;52.070;8.596;2023-03-12T02:17:23;100146.97;;;-2.82;95.66
55070;BME280;40967;52.070;8.596;2023-03-12T02:20:05;100146.56;;;-2.79;96.27
55070;BME280;40967;52.070;8.596;2023-03-12T02:22:35;100127.50;;;-2.89;96.23
55070;BME280;40967;52.070;8.596;2023-03-12T02:25:17;100152.91;;;-2.80;96.42
55070;BME280;40967;52.070;8.596;2023-03-12T02:27:44;100140.63;;;-2.81;96.03
55070;BME280;40967;52.070;8.596;2023-03-12T02:30:11;100134.66;;;-2.90;95.98
55070;BME280;40967;52.070;8.596;2023-03-12T02:32:41;100131.34;;;-2.92;96.44
55070;BME280;40967;52.070;8.596;2023-03-12T02:35:10;100129.34;;;-2.90;96.65
55070;BME280;40967;52.070;8.596;2023-03-12T02:37:35;100144.91;;;-2.87;96.48
55070;BME280;40967;52.070;8.596;2023-03-12T02:40:09;100137.94;;;-2.88;97.11
55070;BME280;40967;52.070;8.596;2023-03-12T02:42:37;100127.06;;;-2.93;97.01
55070;BME280;40967;52.070;8.596;2023-03-12T02:45:03;100135.47;;;-2.89;97.36
55070;BME280;40967;52.070;8.596;2023-03-12T02:47:29;100131.34;;;-2.92;96.84
55070;BME280;40967;52.070;8.596;2023-03-12T02:49:54;100110.50;;;-2.95;96.45
55070;BME280;40967;52.070;8.596;2023-03-12T02:52:20;100119.31;;;-2.94;96.70
55070;BME280;40967;52.070;8.596;2023-03-12T02:54:45;100125.69;;;-2.89;96.67
55070;BME280;40967;52.070;8.596;2023-03-12T02:57:10;100126.06;;;-2.92;97.06
55070;BME280;40967;52.070;8.596;2023-03-12T02:59:36;100135.28;;;-2.88;97.11
55070;BME280;40967;52.070;8.596;2023-03-12T03:02:01;100132.00;;;-2.90;97.57
55070;BME280;40967;52.070;8.596;2023-03-12T03:04:30;100127.72;;;-2.91;97.37
55070;BME280;40967;52.070;8.596;2023-03-12T03:06:56;100119.75;;;-2.91;97.96
55070;BME280;40967;52.070;8.596;2023-03-12T03:09:22;100116.06;;;-2.90;97.53
55070;BME280;40967;52.070;8.596;2023-03-12T03:11:49;100125.50;;;-2.87;97.90
55070;BME280;40967;52.070;8.596;2023-03-12T03:14:14;100110.13;;;-2.92;97.56
55070;BME280;40967;52.070;8.596;2023-03-12T03:16:40;100123.66;;;-2.87;97.23
55070;BME280;40967;52.070;8.596;2023-03-12T03:19:06;100107.31;;;-2.90;97.33
55070;BME280;40967;52.070;8.596;2023-03-12T03:21:31;100114.69;;;-2.86;96.83
55070;BME280;40967;52.070;8.596;2023-03-12T03:23:57;100110.41;;;-2.87;97.15
55070;BME280;40967;52.070;8.596;2023-03-12T03:26:23;100106.28;;;-2.89;97.25
55070;BME280;40967;52.070;8.596;2023-03-12T03:28:49;100116.06;;;-2.90;97.40
55070;BME280;40967;52.070;8.596;2023-03-12T03:31:16;100097.00;;;-3.00;97.18
55070;BME280;40967;52.070;8.596;2023-03-12T03:33:42;100120.38;;;-2.89;97.40
55070;BME280;40967;52.070;8.596;2023-03-12T03:36:10;100108.94;;;-2.89;97.85
55070;BME280;40967;52.070;8.596;2023-03-12T03:38:39;100118.34;;;-2.87;97.76
55070;BME280;40967;52.070;8.596;2023-03-12T03:41:04;100105.66;;;-2.91;97.48
55070;BME280;40967;52.070;8.596;2023-03-12T03:43:29;100111.00;;;-2.85;97.87
55070;BME280;40967;52.070;8.596;2023-03-12T03:46:01;100106.31;;;-2.83;97.66
55070;BME280;40967;52.070;8.596;2023-03-12T03:48:27;100095.47;;;-2.88;98.16
55070;BME280;40967;52.070;8.596;2023-03-12T03:50:52;100099.22;;;-2.76;97.86
55070;BME280;40967;52.070;8.596;2023-03-12T03:53:19;100099.25;;;-2.69;97.51
55070;BME280;40967;52.070;8.596;2023-03-12T03:55:45;100081.91;;;-2.72;97.42
55070;BME280;40967;52.070;8.596;2023-03-12T03:58:11;100095.44;;;-2.60;97.10
55070;BME280;40967;52.070;8.596;2023-03-12T04:00:36;100084.19;;;-2.62;96.62
55070;BME280;40967;52.070;8.596;2023-03-12T04:03:02;100081.59;;;-2.56;96.14
55070;BME280;40967;52.070;8.596;2023-03-12T04:05:27;100090.03;;;-2.46;96.33
55070;BME280;40967;52.070;8.596;2023-03-12T04:07:54;100082.06;;;-2.46;95.79
55070;BME280;40967;52.070;8.596;2023-03-12T04:10:21;100075.50;;;-2.43;95.79
55070;BME280;40967;52.070;8.596;2023-03-12T04:12:47;100071.66;;;-2.41;95.82
55070;BME280;40967;52.070;8.596;2023-03-12T04:15:12;100067.53;;;-2.43;95.13
55070;BME280;40967;52.070;8.596;2023-03-12T04:17:37;100070.81;;;-2.41;95.08
55070;BME280;40967;52.070;8.596;2023-03-12T04:20:03;100074.53;;;-2.36;94.92
55070;BME280;40967;52.070;8.596;2023-03-12T04:22:32;100074.53;;;-2.36;94.89
55070;BME280;40967;52.070;8.596;2023-03-12T04:24:57;100077.41;;;-2.31;94.91
55070;BME280;40967;52.070;8.596;2023-03-12T04:27:22;100062.09;;;-2.28;94.77
55070;BME280;40967;52.070;8.596;2023-03-12T04:29:48;100062.72;;;-2.26;94.41
55070;BME280;40967;52.070;8.596;2023-03-12T04:32:13;100046.78;;;-2.33;94.30
55070;BME280;40967;52.070;8.596;2023-03-12T04:34:38;100032.63;;;-2.40;94.42
55070;BME280;40967;52.070;8.596;2023-03-12T04:37:04;100058.66;;;-2.22;94.47
55070;BME280;40967;52.070;8.596;2023-03-12T04:39:29;100057.63;;;-2.21;94.39
55070;BME280;40967;52.070;8.596;2023-03-12T04:41:55;100049.66;;;-2.21;94.29
55070;BME280;40967;52.070;8.596;2023-03-12T04:44:20;100058.25;;;-2.19;94.44
55070;BME280;40967;52.070;8.596;2023-03-12T04:46:45;100040.25;;;-2.24;94.24
55070;BME280;40967;52.070;8.596;2023-03-12T04:49:11;100044.97;;;-2.19;94.03
55070;BME280;40967;52.070;8.596;2023-03-12T04:51:36;100028.34;;;-2.35;94.06
55070;BME280;40967;52.070;8.596;2023-03-12T04:54:02;100052.13;;;-2.20;94.26
55070;BME280;40967;52.070;8.596;2023-03-12T04:56:27;100046.81;;;-2.20;94.60
55070;BME280;40967;52.070;8.596;2023-03-12T04:58:53;100044.16;;;-2.20;94.60
55070;BME280;40967;52.070;8.596;2023-03-12T05:01:25;100028.41;;;-2.21;94.73
55070;BME280;40967;52.070;8.596;2023-03-12T05:03:51;100037.63;;;-2.17;94.85
55070;BME280;40967;52.070;8.596;2023-03-12T05:06:21;100026.38;;;-2.19;94.50
55070;BME280;40967;52.070;8.596;2023-03-12T05:08:48;100031.28;;;-2.16;94.58
55070;BME280;40967;52.070;8.596;2023-03-12T05:11:14;100017.38;;;-2.25;94.47
55070;BME280;40967;52.070;8.596;2023-03-12T05:13:39;100026.81;;;-2.16;94.67
55070;BME280;40967;52.070;8.596;2023-03-12T05:16:05;100027.84;;;-2.10;94.70
55070;BME280;40967;52.070;8.596;2023-03-12T05:18:31;100036.41;;;-2.08;94.65
55070;BME280;40967;52.070;8.596;2023-03-12T05:21:04;100030.50;;;-2.04;94.62
55070;BME280;40967;52.070;8.596;2023-03-12T05:23:32;100012.50;;;-2.08;94.67
55070;BME280;40967;52.070;8.596;2023-03-12T05:25:57;100020.94;;;-1.98;94.82
55070;BME280;40967;52.070;8.596;2023-03-12T05:28:23;100005.78;;;-2.04;94.44
55070;BME280;40967;52.070;8.596;2023-03-12T05:30:53;100009.25;;;-1.97;94.57
55070;BME280;40967;52.070;8.596;2023-03-12T05:33:19;100010.50;;;-1.93;94.61
55070;BME280;40967;52.070;8.596;2023-03-12T05:35:44;100008.88;;;-1.88;94.57
55070;BME280;40967;52.070;8.596;2023-03-12T05:38:10;100004.16;;;-1.86;94.64
55070;BME280;40967;52.070;8.596;2023-03-12T05:40:36;99990.88;;;-1.86;94.75
55070;BME280;40967;52.070;8.596;2023-03-12T05:43:01;99994.97;;;-1.83;94.38
55070;BME280;40967;52.070;8.596;2023-03-12T05:45:26;100004.81;;;-1.77;94.42
55070;BME280;40967;52.070;8.596;2023-03-12T05:47:52;100002.75;;;-1.75;94.52
55070;BME280;40967;52.070;8.596;2023-03-12T05:50:17;99967.56;;;-1.90;94.38
55070;BME280;40967;52.070;8.596;2023-03-12T05:52:43;99982.31;;;-1.75;94.41
55070;BME280;40967;52.070;8.596;2023-03-12T05:55:08;99994.59;;;-1.67;94.42
55070;BME280;40967;52.070;8.596;2023-03-12T05:57:34;99963.47;;;-1.73;94.45
55070;BME280;40967;52.070;8.596;2023-03-12T05:59:59;99971.88;;;-1.63;94.47
55070;BME280;40967;52.070;8.596;2023-03-12T06:02:25;99965.34;;;-1.61;94.68
55070;BME280;40967;52.070;8.596;2023-03-12T06:04:50;99966.78;;;-1.58;94.29
55070;BME280;40967;52.070;8.596;2023-03-12T06:07:15;99964.72;;;-1.56;94.75
55070;BME280;40967;52.070;8.596;2023-03-12T06:09:41;99956.75;;;-1.63;95.03
55070;BME280;40967;52.070;8.596;2023-03-12T06:12:07;99955.72;;;-1.62;94.88
55070;BME280;40967;52.070;8.596;2023-03-12T06:14:32;99972.91;;;-1.51;95.06
55070;BME280;40967;52.070;8.596;2023-03-12T06:16:58;99961.03;;;-1.49;95.19
55070;BME280;40967;52.070;8.596;2023-03-12T06:19:23;99960.41;;;-1.44;95.24
55070;BME280;40967;52.070;8.596;2023-03-12T06:21:49;99955.69;;;-1.42;95.18
55070;BME280;40967;52.070;8.596;2023-03-12T06:24:14;99937.50;;;-1.45;95.16
55070;BME280;40967;52.070;8.596;2023-03-12T06:26:40;99945.06;;;-1.36;95.09
55070;BME280;40967;52.070;8.596;2023-03-12T06:29:05;99943.63;;;-1.32;95.26
55070;BME280;40967;52.070;8.596;2023-03-12T06:31:31;99932.56;;;-1.35;95.48
55070;BME280;40967;52.070;8.596;2023-03-12T06:33:56;99938.88;;;-1.23;95.20
55070;BME280;40967;52.070;8.596;2023-03-12T06:36:21;99938.88;;;-1.23;95.26
55070;BME280;40967;52.070;8.596;2023-03-12T06:38:48;99929.28;;;-1.24;95.50
55070;BME280;40967;52.070;8.596;2023-03-12T06:41:16;99923.94;;;-1.18;95.53
55070;BME280;40967;52.070;8.596;2023-03-12T06:43:43;99918.59;;;-1.11;95.57
55070;BME280;40967;52.070;8.596;2023-03-12T06:46:12;99923.28;;;-1.00;95.53
55070;BME280;40967;52.070;8.596;2023-03-12T06:48:38;99930.84;;;-0.97;95.57
55070;BME280;40967;52.070;8.596;2023-03-12T06:51:06;99919.78;;;-0.94;95.33
55070;BME280;40967;52.070;8.596;2023-03-12T06:53:33;99927.53;;;-0.86;95.62
55070;BME280;40967;52.070;8.596;2023-03-12T06:55:58;99925.06;;;-0.81;95.21
55070;BME280;40967;52.070;8.596;2023-03-12T06:58:24;99891.53;;;-0.95;94.91
55070;BME280;40967;52.070;8.596;2023-03-12T07:00:50;99917.25;;;-0.76;94.95
55070;BME280;40967;52.070;8.596;2023-03-12T07:03:15;99923.97;;;-0.67;94.91
55070;BME280;40967;52.070;8.596;2023-03-12T07:05:45;99909.84;;;-0.67;94.60
55070;BME280;40967;52.070;8.596;2023-03-12T07:08:11;99923.13;;;-0.54;94.56
55070;BME280;40967;52.070;8.596;2023-03-12T07:10:40;99924.69;;;-0.47;94.69
55070;BME280;40967;52.070;8.596;2023-03-12T07:13:06;99912.63;;;-0.49;94.89
55070;BME280;40967;52.070;8.596;2023-03-12T07:15:34;99924.63;;;-0.34;94.88
55070;BME280;40967;52.070;8.596;2023-03-12T07:18:04;99925.84;;;-0.30;94.81
55070;BME280;40967;52.070;8.596;2023-03-12T07:20:30;99922.09;;;-0.22;94.98
55070;BME280;40967;52.070;8.596;2023-03-12T07:22:56;99904.28;;;-0.22;95.29
55070;BME280;40967;52.070;8.596;2023-03-12T07:25:21;99911.38;;;-0.09;95.13
55070;BME280;40967;52.070;8.596;2023-03-12T07:27:47;99913.75;;;-0.01;94.61
55070;BME280;40967;52.070;8.596;2023-03-12T07:30:12;99915.78;;;0.03;94.12
55070;BME280;40967;52.070;8.596;2023-03-12T07:32:38;99916.75;;;0.09;94.54
55070;BME280;40967;52.070;8.596;2023-03-12T07:35:04;99891.59;;;-0.02;95.01
55070;BME280;40967;52.070;8.596;2023-03-12T07:37:29;99917.47;;;0.23;94.45
55070;BME280;40967;52.070;8.596;2023-03-12T07:39:55;99903.28;;;0.29;94.32
55070;BME280;40967;52.070;8.596;2023-03-12T07:42:21;99903.22;;;0.35;94.28
55070;BME280;40967;52.070;8.596;2023-03-12T07:44:46;99893.59;;;0.34;94.47
55070;BME280;40967;52.070;8.596;2023-03-12T07:47:12;99898.41;;;0.44;94.64
55070;BME280;40967;52.070;8.596;2023-03-12T07:49:37;99911.91;;;0.49;94.21
55070;BME280;40967;52.070;8.596;2023-03-12T07:52:06;99898.16;;;0.52;93.94
55070;BME280;40967;52.070;8.596;2023-03-12T07:54:34;99889.25;;;0.58;94.17
55070;BME280;40967;52.070;8.596;2023-03-12T07:57:00;99893.13;;;0.62;94.03
55070;BME280;40967;52.070;8.596;2023-03-12T07:59:25;99880.16;;;0.65;93.65
55070;BME280;40967;52.070;8.596;2023-03-12T08:01:52;99858.88;;;0.59;93.49
55070;BME280;40967;52.070;8.596;2023-03-12T08:04:17;99878.00;;;0.74;93.28
55070;BME280;40967;52.070;8.596;2023-03-12T08:06:43;99875.72;;;0.77;94.07
55070;BME280;40967;52.070;8.596;2023-03-12T08:09:08;99884.25;;;0.86;93.55
55070;BME280;40967;52.070;8.596;2023-03-12T08:11:34;99869.84;;;0.87;93.89
55070;BME280;40967;52.070;8.596;2023-03-12T08:14:01;99867.72;;;0.95;93.92
55070;BME280;40967;52.070;8.596;2023-03-12T08:16:26;99854.13;;;0.97;93.29
55070;BME280;40967;52.070;8.596;2023-03-12T08:18:52;99858.41;;;1.16;93.42
55070;BME280;40967;52.070;8.596;2023-03-12T08:21:17;99841.09;;;1.18;92.97
55070;BME280;40967;52.070;8.596;2023-03-12T08:23:42;99841.69;;;1.21;93.06
55070;BME280;40967;52.070;8.596;2023-03-12T08:26:08;99844.22;;;1.34;92.86
55070;BME280;40967;52.070;8.596;2023-03-12T08:28:33;99843.28;;;1.40;92.44
55070;BME280;40967;52.070;8.596;2023-03-12T08:30:59;99855.06;;;1.50;91.61
55070;BME280;40967;52.070;8.596;2023-03-12T08:33:25;99842.53;;;1.51;90.87
55070;BME280;40967;52.070;8.596;2023-03-12T08:35:50;99860.03;;;1.65;90.51
55070;BME280;40967;52.070;8.596;2023-03-12T08:38:16;99859.91;;;1.71;89.89
55070;BME280;40967;52.070;8.596;2023-03-12T08:40:42;99855.41;;;1.83;89.38
55070;BME280;40967;52.070;8.596;2023-03-12T08:43:07;99850.31;;;1.93;89.66
55070;BME280;40967;52.070;8.596;2023-03-12T08:45:33;99849.53;;;2.04;89.02
55070;BME280;40967;52.070;8.596;2023-03-12T08:48:01;99858.16;;;2.18;88.79
55070;BME280;40967;52.070;8.596;2023-03-12T08:50:27;99837.22;;;2.15;88.09
55070;BME280;40967;52.070;8.596;2023-03-12T08:52:55;99859.91;;;2.36;88.14
55070;BME280;40967;52.070;8.596;2023-03-12T08:55:20;99867.59;;;2.44;86.83
55070;BME280;40967;52.070;8.596;2023-03-12T08:57:46;99869.47;;;2.55;86.25
55070;BME280;40967;52.070;8.596;2023-03-12T09:00:12;99845.72;;;2.47;86.02
55070;BME280;40967;52.070;8.596;2023-03-12T09:02:42;99865.97;;;2.66;84.36
55070;BME280;40967;52.070;8.596;2023-03-12T09:05:08;99855.13;;;2.72;83.04
55070;BME280;40967;52.070;8.596;2023-03-12T09:07:33;99829.16;;;2.61;82.23
55070;BME280;40967;52.070;8.596;2023-03-12T09:09:58;99845.44;;;2.71;81.66
55070;BME280;40967;52.070;8.596;2023-03-12T09:12:24;99855.47;;;2.76;81.23
55070;BME280;40967;52.070;8.596;2023-03-12T09:14:50;99848.47;;;2.75;80.79
55070;BME280;40967;52.070;8.596;2023-03-12T09:17:15;99842.88;;;2.88;80.18
55070;BME280;40967;52.070;8.596;2023-03-12T09:19:41;99848.47;;;2.86;79.92
55070;BME280;40967;52.070;8.596;2023-03-12T09:22:06;99845.44;;;2.83;80.00
55070;BME280;40967;52.070;8.596;2023-03-12T09:24:32;99854.63;;;2.87;80.35
55070;BME280;40967;52.070;8.596;2023-03-12T09:26:58;99844.50;;;2.89;81.48
55070;BME280;40967;52.070;8.596;2023-03-12T09:29:23;99842.06;;;2.87;82.30
55070;BME280;40967;52.070;8.596;2023-03-12T09:31:49;99847.75;;;2.91;83.45
55070;BME280;40967;52.070;8.596;2023-03-12T09:34:15;99850.91;;;2.88;84.32
55070;BME280;40967;52.070;8.596;2023-03-12T09:36:40;99849.50;;;2.85;85.31
55070;BME280;40967;52.070;8.596;2023-03-12T09:39:06;99850.09;;;2.87;85.74
55070;BME280;40967;52.070;8.596;2023-03-12T09:41:35;99839.38;;;2.87;86.36
55070;BME280;40967;52.070;8.596;2023-03-12T09:44:38;99843.81;;;2.82;87.55
55070;BME280;40967;52.070;8.596;2023-03-12T09:47:29;99834.41;;;2.79;87.96
55070;BME280;40967;52.070;8.596;2023-03-12T09:53:32;99830.16;;;2.83;89.55
55070;BME280;40967;52.070;8.596;2023-03-12T09:55:56;99821.34;;;2.83;90.08
55070;BME280;40967;52.070;8.596;2023-03-12T10:15:06;99795.03;;;2.68;93.60
55070;BME280;40967;52.070;8.596;2023-03-12T10:25:24;99781.88;;;2.67;95.37
55070;BME280;40967;52.070;8.596;2023-03-12T10:27:53;99774.22;;;2.59;95.90
55070;BME280;40967;52.070;8.596;2023-03-12T10:30:29;99779.09;;;2.62;95.71
55070;BME280;40967;52.070;8.596;2023-03-12T10:32:59;99770.50;;;2.60;96.26
55070;BME280;40967;52.070;8.596;2023-03-12T10:35:28;99776.78;;;2.65;96.86
55070;BME280;40967;52.070;8.596;2023-03-12T10:37:58;99775.38;;;2.63;97.10
55070;BME280;40967;52.070;8.596;2023-03-12T10:40:27;99776.91;;;2.59;97.67
55070;BME280;40967;52.070;8.596;2023-03-12T10:42:53;99777.59;;;2.54;97.98
55070;BME280;40967;52.070;8.596;2023-03-12T10:47:57;99786.56;;;2.60;98.91
55070;BME280;40967;52.070;8.596;2023-03-12T10:50:27;99764.09;;;2.49;99.08
55070;BME280;40967;52.070;8.596;2023-03-12T10:53:19;99772.59;;;2.58;99.54
55070;BME280;40967;52.070;8.596;2023-03-12T10:58:35;99769.91;;;2.58;100.00
55070;BME280;40967;52.070;8.596;2023-03-12T11:01:03;99766.75;;;2.61;100.00
55070;BME280;40967;52.070;8.596;2023-03-12T11:03:29;99761.53;;;2.54;100.00
55070;BME280;40967;52.070;8.596;2023-03-12T11:05:57;99770.97;;;2.57;100.00
55070;BME280;40967;52.070;8.596;2023-03-12T11:08:25;99774.00;;;2.60;100.00
55070;BME280;40967;52.070;8.596;2023-03-12T11:10:53;99766.44;;;2.57;100.00
55070;BME280;40967;52.070;8.596;2023-03-12T11:16:22;99760.72;;;2.65;100.00
55070;BME280;40967;52.070;8.596;2023-03-12T11:19:00;99753.00;;;2.69;100.00
55070;BME280;40967;52.070;8.596;2023-03-12T11:21:27;99752.53;;;2.72;100.00
55070;BME280;40967;52.070;8.596;2023-03-12T11:32:09;99747.00;;;2.90;100.00
55070;BME280;40967;52.070;8.596;2023-03-12T11:34:40;99730.34;;;2.88;100.00
55070;BME280;40967;52.070;8.596;2023-03-12T11:56:38;99707.28;;;2.87;100.00
55070;BME280;40967;52.070;8.596;2023-03-12T12:10:33;99710.53;;;3.17;100.00
55070;BME280;40967;52.070;8.596;2023-03-12T12:13:28;99697.78;;;3.24;100.00
55070;BME280;40967;52.070;8.596;2023-03-12T12:19:00;99680.75;;;3.30;100.00
55070;BME280;40967;52.070;8.596;2023-03-12T12:35:44;99667.09;;;3.48;100.00
55070;BME280;40967;52.070;8.596;2023-03-12T12:38:30;99673.59;;;3.52;100.00
55070;BME280;40967;52.070;8.596;2023-03-12T12:41:12;99665.56;;;3.52;100.00
55070;BME280;40967;52.070;8.596;2023-03-12T12:43:50;99650.63;;;3.56;100.00
55070;BME280;40967;52.070;8.596;2023-03-12T12:46:20;99655.31;;;3.66;100.00
55070;BME280;40967;52.070;8.596;2023-03-12T12:48:53;99665.53;;;3.69;100.00
55070;BME280;40967;52.070;8.596;2023-03-12T12:51:30;99655.06;;;3.67;100.00
55070;BME280;40967;52.070;8.596;2023-03-12T12:54:28;99665.47;;;3.80;100.00
55070;BME280;40967;52.070;8.596;2023-03-12T13:01:56;99633.91;;;3.87;100.00
55070;BME280;40967;52.070;8.596;2023-03-12T13:04:34;99628.34;;;3.94;100.00
55070;BME280;40967;52.070;8.596;2023-03-12T13:07:03;99630.03;;;4.00;100.00
55070;BME280;40967;52.070;8.596;2023-03-12T13:09:49;99642.28;;;4.12;100.00
55070;BME280;40967;52.070;8.596;2023-03-12T13:14:56;99644.03;;;4.23;100.00
55070;BME280;40967;52.070;8.596;2023-03-12T13:20:18;99626.38;;;4.27;100.00
55070;BME280;40967;52.070;8.596;2023-03-12T13:25:50;99639.97;;;4.42;100.00
55070;BME280;40967;52.070;8.596;2023-03-12T13:30:52;99646.34;;;4.58;100.00
55070;BME280;40967;52.070;8.596;2023-03-12T13:33:36;99637.50;;;4.62;100.00
55070;BME280;40967;52.070;8.596;2023-03-12T13:36:19;99637.56;;;4.68;100.00
55070;BME280;40967;52.070;8.596;2023-03-12T13:43:56;99622.63;;;4.77;100.00
55070;BME280;40967;52.070;8.596;2023-03-12T13:46:41;99625.97;;;4.89;100.00
55070;BME280;40967;52.070;8.596;2023-03-12T13:49:10;99624.97;;;4.95;100.00
55070;BME280;40967;52.070;8.596;2023-03-12T13:52:09;99630.38;;;5.00;100.00
55070;BME280;40967;52.070;8.596;2023-03-12T13:54:43;99617.78;;;5.05;100.00
55070;BME280;40967;52.070;8.596;2023-03-12T13:57:19;99622.13;;;5.11;100.00
55070;BME280;40967;52.070;8.596;2023-03-12T13:59:49;99610.63;;;5.16;100.00
55070;BME280;40967;52.070;8.596;2023-03-12T14:02:32;99622.28;;;5.26;100.00
55070;BME280;40967;52.070;8.596;2023-03-12T14:05:05;99607.75;;;5.27;100.00
55070;BME280;40967;52.070;8.596;2023-03-12T14:13:20;99597.94;;;5.43;100.00
55070;BME280;40967;52.070;8.596;2023-03-12T14:18:38;99590.97;;;5.47;100.00
55070;BME280;40967;52.070;8.596;2023-03-12T14:21:13;99608.50;;;5.59;100.00
55070;BME280;40967;52.070;8.596;2023-03-12T14:23:45;99624.97;;;5.63;100.00
55070;BME280;40967;52.070;8.596;2023-03-12T14:26:18;99630.63;;;5.66;100.00
55070;BME280;40967;52.070;8.596;2023-03-12T14:28:46;99630.41;;;5.68;100.00
55070;BME280;40967;52.070;8.596;2023-03-12T14:31:16;99639.81;;;5.70;100.00
55070;BME280;40967;52.070;8.596;2023-03-12T14:34:06;99643.06;;;5.72;100.00
55070;BME280;40967;52.070;8.596;2023-03-12T14:36:47;99640.09;;;5.74;100.00
55070;BME280;40967;52.070;8.596;2023-03-12T14:42:00;99638.53;;;5.78;100.00
55070;BME280;40967;52.070;8.596;2023-03-12T14:44:29;99643.38;;;5.81;100.00
55070;BME280;40967;52.070;8.596;2023-03-12T14:47:09;99650.97;;;5.84;100.00
55070;BME280;40967;52.070;8.596;2023-03-12T14:49:41;99644.53;;;5.85;100.00
55070;BME280;40967;52.070;8.596;2023-03-12T14:52:27;99643.47;;;5.91;100.00
55070;BME280;40967;52.070;8.596;2023-03-12T14:55:10;99642.72;;;5.96;100.00
55070;BME280;40967;52.070;8.596;2023-03-12T14:57:36;99641.09;;;6.00;100.00
55070;BME280;40967;52.070;8.596;2023-03-12T15:00:03;99629.00;;;5.97;100.00
55070;BME280;40967;52.070;8.596;2023-03-12T15:02:30;99624.19;;;6.04;100.00
55070;BME280;40967;52.070;8.596;2023-03-12T15:04:58;99604.22;;;6.00;100.00
55070;BME280;40967;52.070;8.596;2023-03-12T15:07:28;99626.09;;;6.14;100.00
55070;BME280;40967;52.070;8.596;2023-03-12T15:09:55;99626.94;;;6.19;100.00